sensor_id;sensor_type;location;lat;lon;timestamp;pressure;altitude;pressure_sealevel;temperature;humidity
14041;BME280;7095;51.388;6.196;2023-05-02T00:02:21;81177.78;;;-145.32;100.00
14041;BME280;7095;51.388;6.196;2023-05-02T00:04:51;81690.91;;;-145.32;100.00
14041;BME280;7095;51.388;6.196;2023-05-02T00:07:20;83230.72;;;-145.32;100.00
14041;BME280;7095;51.388;6.196;2023-05-02T00:09:50;83744.16;;;-145.32;100.00
14041;BME280;7095;51.388;6.196;2023-05-02T00:12:18;85284.91;;;-145.32;100.00
14041;BME280;7095;51.388;6.196;2023-05-02T00:14:47;86312.47;;;-145.32;100.00
14041;BME280;7095;51.388;6.196;2023-05-02T00:17:16;87083.34;;;-145.32;100.00
14041;BME280;7095;51.388;6.196;2023-05-02T00:19:46;87854.38;;;-145.32;100.00
14041;BME280;7095;51.388;6.196;2023-05-02T00:22:16;87854.38;;;-145.32;100.00
14041;BME280;7095;51.388;6.196;2023-05-02T00:24:45;87597.34;;;-145.32;100.00
14041;BME280;7095;51.388;6.196;2023-05-02T00:27:14;87340.31;;;-145.32;100.00
14041;BME280;7095;51.388;6.196;2023-05-02T00:29:43;87854.38;;;-145.32;100.00
14041;BME280;7095;51.388;6.196;2023-05-02T00:32:14;86055.56;;;-145.32;100.00
14041;BME280;7095;51.388;6.196;2023-05-02T00:34:43;86569.41;;;-145.32;100.00
14041;BME280;7095;51.388;6.196;2023-05-02T00:37:12;86826.34;;;-145.32;100.00
14041;BME280;7095;51.388;6.196;2023-05-02T00:39:42;86312.47;;;-145.32;100.00
14041;BME280;7095;51.388;6.196;2023-05-02T00:42:11;84771.25;;;-145.32;100.00
14041;BME280;7095;51.388;6.196;2023-05-02T00:44:39;85798.66;;;-145.32;100.00
14041;BME280;7095;51.388;6.196;2023-05-02T00:47:10;85028.06;;;-145.32;100.00
14041;BME280;7095;51.388;6.196;2023-05-02T00:49:39;85798.66;;;-145.32;100.00
14041;BME280;7095;51.388;6.196;2023-05-02T00:52:09;85028.06;;;-145.32;100.00
14041;BME280;7095;51.388;6.196;2023-05-02T00:54:37;82460.72;;;-145.32;100.00
14041;BME280;7095;51.388;6.196;2023-05-02T00:57:08;83230.72;;;-145.32;100.00
14041;BME280;7095;51.388;6.196;2023-05-02T00:59:37;82460.72;;;-145.32;100.00
14041;BME280;7095;51.388;6.196;2023-05-02T01:02:16;83487.44;;;-145.32;100.00
14041;BME280;7095;51.388;6.196;2023-05-02T01:04:59;82204.09;;;-145.32;100.00
14041;BME280;7095;51.388;6.196;2023-05-02T01:07:44;82974.03;;;-145.32;100.00
14041;BME280;7095;51.388;6.196;2023-05-02T01:10:22;83487.44;;;-145.32;100.00
14041;BME280;7095;51.388;6.196;2023-05-02T01:13:03;82460.72;;;-145.32;100.00
14041;BME280;7095;51.388;6.196;2023-05-02T01:15:37;80664.72;;;-145.32;100.00
14041;BME280;7095;51.388;6.196;2023-05-02T01:18:08;81177.78;;;-145.32;100.00
14041;BME280;7095;51.388;6.196;2023-05-02T01:20:39;82204.09;;;-145.32;100.00
14041;BME280;7095;51.388;6.196;2023-05-02T01:23:15;81177.78;;;-145.32;100.00
14041;BME280;7095;51.388;6.196;2023-05-02T01:25:55;81947.50;;;-145.32;100.00
14041;BME280;7095;51.388;6.196;2023-05-02T01:31:10;79638.84;;;-145.32;100.00
14041;BME280;7095;51.388;6.196;2023-05-02T01:33:40;79895.28;;;-145.32;100.00
14041;BME280;7095;51.388;6.196;2023-05-02T01:36:11;81177.78;;;-145.32;100.00
14041;BME280;7095;51.388;6.196;2023-05-02T01:38:41;81177.78;;;-145.32;100.00
14041;BME280;7095;51.388;6.196;2023-05-02T01:41:11;80664.72;;;-145.32;100.00
14041;BME280;7095;51.388;6.196;2023-05-02T01:43:41;81690.91;;;-145.32;100.00
14041;BME280;7095;51.388;6.196;2023-05-02T01:46:13;79638.84;;;-145.32;100.00
14041;BME280;7095;51.388;6.196;2023-05-02T01:48:44;80408.22;;;-145.32;100.00
14041;BME280;7095;51.388;6.196;2023-05-02T01:51:17;77588.03;;;-145.32;100.00
14041;BME280;7095;51.388;6.196;2023-05-02T01:53:48;78869.66;;;-145.32;100.00
14041;BME280;7095;51.388;6.196;2023-05-02T01:56:18;79126.03;;;-145.32;100.00
14041;BME280;7095;51.388;6.196;2023-05-02T01:58:48;77588.03;;;-145.32;100.00
14041;BME280;7095;51.388;6.196;2023-05-02T02:01:21;77331.78;;;-145.32;100.00
14041;BME280;7095;51.388;6.196;2023-05-02T02:03:55;77075.53;;;-145.32;100.00
14041;BME280;7095;51.388;6.196;2023-05-02T02:06:25;75026.22;;;-145.32;100.00
14041;BME280;7095;51.388;6.196;2023-05-02T02:08:54;69333.09;;;-145.32;100.00
14041;BME280;7095;51.388;6.196;2023-05-02T02:11:26;70867.38;;;-145.32;100.00
14041;BME280;7095;51.388;6.196;2023-05-02T02:14:01;72210.47;;;-145.32;100.00
14041;BME280;7095;51.388;6.196;2023-05-02T02:16:37;68979.56;;;-145.32;100.00
14041;BME280;7095;51.388;6.196;2023-05-02T02:19:07;69992.28;;;-145.32;100.00
14041;BME280;7095;51.388;6.196;2023-05-02T02:21:38;69648.69;;;-145.32;100.00
14041;BME280;7095;51.388;6.196;2023-05-02T02:24:09;67797.47;;;-145.32;100.00
14041;BME280;7095;51.388;6.196;2023-05-02T02:26:38;67390.22;;;-145.32;100.00
14041;BME280;7095;51.388;6.196;2023-05-02T02:29:07;65673.94;;;-145.32;100.00
14041;BME280;7095;51.388;6.196;2023-05-02T02:31:37;62122.34;;;-145.32;100.00
14041;BME280;7095;51.388;6.196;2023-05-02T02:34:07;62259.88;;;-145.32;100.00
14041;BME280;7095;51.388;6.196;2023-05-02T02:36:44;62034.63;;;-145.32;100.00
14041;BME280;7095;51.388;6.196;2023-05-02T02:39:20;61532.44;;;-145.32;100.00
14041;BME280;7095;51.388;6.196;2023-05-02T02:41:59;60245.34;;;-145.32;100.00
14041;BME280;7095;51.388;6.196;2023-05-02T02:44:39;60042.16;;;-145.32;100.00
14041;BME280;7095;51.388;6.196;2023-05-02T02:47:19;60125.81;;;-145.32;100.00
14041;BME280;7095;51.388;6.196;2023-05-02T02:49:53;60089.97;;;-145.32;100.00
14041;BME280;7095;51.388;6.196;2023-05-02T02:52:29;60291.16;;;-145.32;100.00
14041;BME280;7095;51.388;6.196;2023-05-02T02:55:07;60968.53;;;-145.32;100.00
14041;BME280;7095;51.388;6.196;2023-05-02T02:57:41;61933.00;;;-145.32;100.00
14041;BME280;7095;51.388;6.196;2023-05-02T03:00:16;61683.88;;;-145.32;100.00
14041;BME280;7095;51.388;6.196;2023-05-02T03:02:49;61980.81;;;-145.32;100.00
14041;BME280;7095;51.388;6.196;2023-05-02T03:05:20;61717.75;;;-145.32;100.00
14041;BME280;7095;51.388;6.196;2023-05-02T03:07:50;62030.66;;;-145.32;100.00
14041;BME280;7095;51.388;6.196;2023-05-02T03:10:22;62515.00;;;-145.32;100.00
14041;BME280;7095;51.388;6.196;2023-05-02T03:12:50;62094.44;;;-145.32;100.00
14041;BME280;7095;51.388;6.196;2023-05-02T03:16:20;62044.59;;;-145.32;100.00
14041;BME280;7095;51.388;6.196;2023-05-02T03:18:55;63095.13;;;-145.32;100.00
14041;BME280;7095;51.388;6.196;2023-05-02T03:21:24;63533.75;;;-145.32;100.00
14041;BME280;7095;51.388;6.196;2023-05-02T03:23:54;63665.34;;;-145.32;100.00
14041;BME280;7095;51.388;6.196;2023-05-02T03:26:23;63884.72;;;-145.32;100.00
14041;BME280;7095;51.388;6.196;2023-05-02T03:28:52;64243.69;;;-145.32;100.00
14041;BME280;7095;51.388;6.196;2023-05-02T03:31:27;63912.63;;;-145.32;100.00
14041;BME280;7095;51.388;6.196;2023-05-02T03:33:57;63170.88;;;-145.32;100.00
14041;BME280;7095;51.388;6.196;2023-05-02T03:36:26;63597.56;;;-145.32;100.00
14041;BME280;7095;51.388;6.196;2023-05-02T03:38:55;65225.03;;;-145.32;100.00
14041;BME280;7095;51.388;6.196;2023-05-02T03:41:34;65017.56;;;-145.32;100.00
14041;BME280;7095;51.388;6.196;2023-05-02T03:44:06;64728.34;;;-145.32;100.00
14041;BME280;7095;51.388;6.196;2023-05-02T03:46:36;64941.78;;;-145.32;100.00
14041;BME280;7095;51.388;6.196;2023-05-02T03:49:10;65733.78;;;-145.32;100.00
14041;BME280;7095;51.388;6.196;2023-05-02T03:51:42;65745.75;;;-145.32;100.00
14041;BME280;7095;51.388;6.196;2023-05-02T03:54:13;65566.19;;;-145.32;100.00
14041;BME280;7095;51.388;6.196;2023-05-02T03:56:41;66605.81;;;-145.32;100.00
14041;BME280;7095;51.388;6.196;2023-05-02T03:59:23;67006.97;;;-145.32;100.00
14041;BME280;7095;51.388;6.196;2023-05-02T04:01:51;69117.38;;;-145.32;100.00
14041;BME280;7095;51.388;6.196;2023-05-02T04:04:28;71187.13;;;-145.32;100.00
14041;BME280;7095;51.388;6.196;2023-05-02T04:06:57;72722.25;;;-145.32;100.00
14041;BME280;7095;51.388;6.196;2023-05-02T04:09:27;74258.06;;;-145.32;100.00
14041;BME280;7095;51.388;6.196;2023-05-02T04:12:01;75794.56;;;-145.32;100.00
14041;BME280;7095;51.388;6.196;2023-05-02T04:14:31;77844.31;;;-145.32;100.00
14041;BME280;7095;51.388;6.196;2023-05-02T04:17:01;78100.63;;;-145.32;100.00
14041;BME280;7095;51.388;6.196;2023-05-02T04:19:50;79382.44;;;-145.32;100.00
14041;BME280;7095;51.388;6.196;2023-05-02T04:22:23;80664.72;;;-145.32;100.00
14041;BME280;7095;51.388;6.196;2023-05-02T04:24:57;82460.72;;;-145.32;100.00
14041;BME280;7095;51.388;6.196;2023-05-02T04:27:27;84000.91;;;-145.32;100.00
14041;BME280;7095;51.388;6.196;2023-05-02T04:29:57;85028.06;;;-145.32;100.00
14041;BME280;7095;51.388;6.196;2023-05-02T04:32:26;86055.56;;;-145.32;100.00
14041;BME280;7095;51.388;6.196;2023-05-02T04:34:58;88625.56;;;-145.32;100.00
14041;BME280;7095;51.388;6.196;2023-05-02T04:37:26;89139.81;;;-145.32;100.00
14041;BME280;7095;51.388;6.196;2023-05-02T04:39:55;90168.50;;;-145.32;100.00
14041;BME280;7095;51.388;6.196;2023-05-02T04:42:26;90940.22;;;-145.32;100.00
14041;BME280;7095;51.388;6.196;2023-05-02T04:45:21;92226.81;;;-145.32;100.00
14041;BME280;7095;51.388;6.196;2023-05-02T04:47:50;93513.91;;;-145.32;100.00
14041;BME280;7095;51.388;6.196;2023-05-02T04:50:20;94028.84;;;-145.32;100.00
14041;BME280;7095;51.388;6.196;2023-05-02T04:52:49;95316.59;;;-145.32;100.00
14041;BME280;7095;51.388;6.196;2023-05-02T04:55:18;96347.13;;;-145.32;100.00
14041;BME280;7095;51.388;6.196;2023-05-02T04:57:47;96347.13;;;-145.32;100.00
14041;BME280;7095;51.388;6.196;2023-05-02T05:00:17;96604.81;;;-145.32;100.00
14041;BME280;7095;51.388;6.196;2023-05-02T05:02:46;96604.81;;;-145.32;100.00
14041;BME280;7095;51.388;6.196;2023-05-02T05:05:15;96604.81;;;-145.32;100.00
14041;BME280;7095;51.388;6.196;2023-05-02T05:07:45;96862.50;;;-145.32;100.00
14041;BME280;7095;51.388;6.196;2023-05-02T05:10:15;95316.59;;;-145.32;100.00
14041;BME280;7095;51.388;6.196;2023-05-02T05:12:45;95059.00;;;-145.32;100.00
14041;BME280;7095;51.388;6.196;2023-05-02T05:15:16;95059.00;;;-145.32;100.00
14041;BME280;7095;51.388;6.196;2023-05-02T05:17:51;94543.91;;;-145.32;100.00
14041;BME280;7095;51.388;6.196;2023-05-02T05:20:21;92741.59;;;-145.32;100.00
14041;BME280;7095;51.388;6.196;2023-05-02T05:22:55;88882.69;;;-145.32;100.00
14041;BME280;7095;51.388;6.196;2023-05-02T05:25:25;86055.56;;;-145.32;100.00
14041;BME280;7095;51.388;6.196;2023-05-02T05:27:56;79895.28;;;-145.32;100.00
14041;BME280;7095;51.388;6.196;2023-05-02T05:30:25;75026.22;;;-145.32;100.00
14041;BME280;7095;51.388;6.196;2023-05-02T05:32:54;74002.03;;;-145.32;100.00
14041;BME280;7095;51.388;6.196;2023-05-02T05:35:23;65612.06;;;-145.32;100.00
14041;BME280;7095;51.388;6.196;2023-05-02T05:37:52;66272.53;;;-145.32;100.00
14041;BME280;7095;51.388;6.196;2023-05-02T05:40:23;62192.09;;;-145.32;100.00
14041;BME280;7095;51.388;6.196;2023-05-02T05:42:55;61703.81;;;-145.32;100.00
14041;BME280;7095;51.388;6.196;2023-05-02T05:45:28;58009.03;;;-145.32;100.00
14041;BME280;7095;51.388;6.196;2023-05-02T05:47:57;58150.38;;;-145.32;100.00
14041;BME280;7095;51.388;6.196;2023-05-02T05:50:29;58807.41;;;-145.32;100.00
14041;BME280;7095;51.388;6.196;2023-05-02T05:52:58;57676.59;;;-145.32;100.00
14041;BME280;7095;51.388;6.196;2023-05-02T05:55:28;57875.66;;;-145.32;100.00
14041;BME280;7095;51.388;6.196;2023-05-02T05:57:58;56681.50;;;-145.32;100.00
14041;BME280;7095;51.388;6.196;2023-05-02T06:00:27;55652.84;;;-145.32;100.00
14041;BME280;7095;51.388;6.196;2023-05-02T06:02:56;55825.94;;;-145.32;100.00
14041;BME280;7095;51.388;6.196;2023-05-02T06:05:30;55611.09;;;-145.32;100.00
14041;BME280;7095;51.388;6.196;2023-05-02T06:07:59;55396.25;;;-145.32;100.00
14041;BME280;7095;51.388;6.196;2023-05-02T06:10:30;55382.31;;;-145.32;100.00
14041;BME280;7095;51.388;6.196;2023-05-02T06:12:59;55507.63;;;-145.32;100.00
14041;BME280;7095;51.388;6.196;2023-05-02T06:15:44;55199.31;;;-145.32;100.00
14041;BME280;7095;51.388;6.196;2023-05-02T06:18:13;55111.81;;;-145.32;100.00
14041;BME280;7095;51.388;6.196;2023-05-02T06:20:42;55040.19;;;-145.32;100.00
14041;BME280;7095;51.388;6.196;2023-05-02T06:23:11;55095.88;;;-145.32;100.00
14041;BME280;7095;51.388;6.196;2023-05-02T06:25:42;54867.16;;;-145.32;100.00
14041;BME280;7095;51.388;6.196;2023-05-02T06:28:11;54954.69;;;-145.32;100.00
14041;BME280;7095;51.388;6.196;2023-05-02T06:30:40;54787.63;;;-145.32;100.00
14041;BME280;7095;51.388;6.196;2023-05-02T06:33:08;54817.44;;;-145.32;100.00
14041;BME280;7095;51.388;6.196;2023-05-02T06:35:38;54509.19;;;-145.32;100.00
14041;BME280;7095;51.388;6.196;2023-05-02T06:38:07;54525.09;;;-145.32;100.00
14041;BME280;7095;51.388;6.196;2023-05-02T06:40:35;54461.47;;;-145.32;100.00
14041;BME280;7095;51.388;6.196;2023-05-02T06:43:13;54449.53;;;-145.32;100.00
14041;BME280;7095;51.388;6.196;2023-05-02T06:45:42;54447.53;;;-145.32;100.00
14041;BME280;7095;51.388;6.196;2023-05-02T06:48:11;54467.44;;;-145.32;100.00
14041;BME280;7095;51.388;6.196;2023-05-02T06:50:40;54433.63;;;-145.32;100.00
14041;BME280;7095;51.388;6.196;2023-05-02T06:53:09;54489.31;;;-145.32;100.00
14041;BME280;7095;51.388;6.196;2023-05-02T06:55:39;54413.72;;;-145.32;100.00
14041;BME280;7095;51.388;6.196;2023-05-02T06:58:08;54475.38;;;-145.32;100.00
14041;BME280;7095;51.388;6.196;2023-05-02T07:00:38;54527.09;;;-145.32;100.00
14041;BME280;7095;51.388;6.196;2023-05-02T07:03:07;54413.72;;;-145.32;100.00
14041;BME280;7095;51.388;6.196;2023-05-02T07:05:37;54425.66;;;-145.32;100.00
14041;BME280;7095;51.388;6.196;2023-05-02T07:08:06;54435.59;;;-145.32;100.00
14041;BME280;7095;51.388;6.196;2023-05-02T07:10:35;54449.53;;;-145.32;100.00
14041;BME280;7095;51.388;6.196;2023-05-02T07:13:04;54242.72;;;-145.32;100.00
14041;BME280;7095;51.388;6.196;2023-05-02T07:15:32;54330.22;;;-145.32;100.00
14041;BME280;7095;51.388;6.196;2023-05-02T07:18:02;54266.59;;;-145.32;100.00
14041;BME280;7095;51.388;6.196;2023-05-02T07:20:31;54246.69;;;-145.32;100.00
14041;BME280;7095;51.388;6.196;2023-05-02T07:22:59;54191.03;;;-145.32;100.00
14041;BME280;7095;51.388;6.196;2023-05-02T07:25:28;54155.22;;;-145.32;100.00
14041;BME280;7095;51.388;6.196;2023-05-02T07:27:57;54127.38;;;-145.32;100.00
14041;BME280;7095;51.388;6.196;2023-05-02T07:30:25;54095.56;;;-145.32;100.00
14041;BME280;7095;51.388;6.196;2023-05-02T07:32:54;54081.66;;;-145.32;100.00
14041;BME280;7095;51.388;6.196;2023-05-02T07:35:24;54087.63;;;-145.32;100.00
14041;BME280;7095;51.388;6.196;2023-05-02T07:37:53;54043.88;;;-145.32;100.00
14041;BME280;7095;51.388;6.196;2023-05-02T07:40:22;54057.78;;;-145.32;100.00
14041;BME280;7095;51.388;6.196;2023-05-02T07:42:51;54087.63;;;-145.32;100.00
14041;BME280;7095;51.388;6.196;2023-05-02T07:45:20;54103.53;;;-145.32;100.00
14041;BME280;7095;51.388;6.196;2023-05-02T07:47:48;54105.50;;;-145.32;100.00
14041;BME280;7095;51.388;6.196;2023-05-02T07:50:17;54115.47;;;-145.32;100.00
14041;BME280;7095;51.388;6.196;2023-05-02T07:52:48;54091.59;;;-145.32;100.00
14041;BME280;7095;51.388;6.196;2023-05-02T07:55:16;54087.63;;;-145.32;100.00
14041;BME280;7095;51.388;6.196;2023-05-02T07:57:45;54119.44;;;-145.32;100.00
14041;BME280;7095;51.388;6.196;2023-05-02T08:00:15;54067.75;;;-145.32;100.00
14041;BME280;7095;51.388;6.196;2023-05-02T08:02:44;54071.72;;;-145.32;100.00
14041;BME280;7095;51.388;6.196;2023-05-02T08:05:13;54075.69;;;-145.32;100.00
14041;BME280;7095;51.388;6.196;2023-05-02T08:07:42;54027.97;;;-145.32;100.00
14041;BME280;7095;51.388;6.196;2023-05-02T08:10:12;54002.13;;;-145.32;100.00
14041;BME280;7095;51.388;6.196;2023-05-02T08:12:45;54027.97;;;-145.32;100.00
14041;BME280;7095;51.388;6.196;2023-05-02T08:15:13;54012.06;;;-145.32;100.00
14041;BME280;7095;51.388;6.196;2023-05-02T08:17:42;53964.34;;;-145.32;100.00
14041;BME280;7095;51.388;6.196;2023-05-02T08:20:11;53908.66;;;-145.32;100.00
14041;BME280;7095;51.388;6.196;2023-05-02T08:22:44;53920.59;;;-145.32;100.00
14041;BME280;7095;51.388;6.196;2023-05-02T08:25:14;53872.88;;;-145.32;100.00
14041;BME280;7095;51.388;6.196;2023-05-02T08:27:44;53868.91;;;-145.32;100.00
14041;BME280;7095;51.388;6.196;2023-05-02T08:30:13;53847.03;;;-145.32;100.00
14041;BME280;7095;51.388;6.196;2023-05-02T08:32:41;53870.88;;;-145.32;100.00
14041;BME280;7095;51.388;6.196;2023-05-02T08:35:10;53856.97;;;-145.32;100.00
14041;BME280;7095;51.388;6.196;2023-05-02T08:37:39;53845.03;;;-145.32;100.00
14041;BME280;7095;51.388;6.196;2023-05-02T08:40:11;53825.16;;;-145.32;100.00
14041;BME280;7095;51.388;6.196;2023-05-02T08:42:42;53783.41;;;-145.32;100.00
14041;BME280;7095;51.388;6.196;2023-05-02T08:45:12;53777.44;;;-145.32;100.00
14041;BME280;7095;51.388;6.196;2023-05-02T08:47:43;53785.41;;;-145.32;100.00
14041;BME280;7095;51.388;6.196;2023-05-02T08:50:14;53791.34;;;-145.32;100.00
14041;BME280;7095;51.388;6.196;2023-05-02T08:52:45;53785.41;;;-145.32;100.00
14041;BME280;7095;51.388;6.196;2023-05-02T08:55:16;53761.53;;;-145.32;100.00
14041;BME280;7095;51.388;6.196;2023-05-02T08:57:56;53703.88;;;-145.32;100.00
14041;BME280;7095;51.388;6.196;2023-05-02T09:00:26;53763.53;;;-145.32;100.00
14041;BME280;7095;51.388;6.196;2023-05-02T09:03:05;53713.81;;;-145.32;100.00
14041;BME280;7095;51.388;6.196;2023-05-02T09:05:42;53713.81;;;-145.32;100.00
14041;BME280;7095;51.388;6.196;2023-05-02T09:08:20;53717.78;;;-145.32;100.00
14041;BME280;7095;51.388;6.196;2023-05-02T09:10:50;53678.03;;;-145.32;100.00
14041;BME280;7095;51.388;6.196;2023-05-02T09:13:34;53689.97;;;-145.32;100.00
14041;BME280;7095;51.388;6.196;2023-05-02T09:16:05;53733.69;;;-145.32;100.00
14041;BME280;7095;51.388;6.196;2023-05-02T09:18:34;53654.19;;;-145.32;100.00
14041;BME280;7095;51.388;6.196;2023-05-02T09:21:05;53644.22;;;-145.32;100.00
14041;BME280;7095;51.388;6.196;2023-05-02T09:23:39;53626.34;;;-145.32;100.00
14041;BME280;7095;51.388;6.196;2023-05-02T09:26:16;53642.25;;;-145.32;100.00
14041;BME280;7095;51.388;6.196;2023-05-02T09:28:48;53658.16;;;-145.32;100.00
14041;BME280;7095;51.388;6.196;2023-05-02T09:31:18;53662.13;;;-145.32;100.00
14041;BME280;7095;51.388;6.196;2023-05-02T09:34:08;53626.34;;;-145.32;100.00
14041;BME280;7095;51.388;6.196;2023-05-02T09:36:42;53658.16;;;-145.32;100.00
14041;BME280;7095;51.388;6.196;2023-05-02T09:39:12;53622.38;;;-145.32;100.00
14041;BME280;7095;51.388;6.196;2023-05-02T09:41:42;53640.25;;;-145.32;100.00
14041;BME280;7095;51.388;6.196;2023-05-02T09:44:14;53642.25;;;-145.32;100.00
14041;BME280;7095;51.388;6.196;2023-05-02T09:46:45;53644.22;;;-145.32;100.00
14041;BME280;7095;51.388;6.196;2023-05-02T09:49:14;53626.34;;;-145.32;100.00
14041;BME280;7095;51.388;6.196;2023-05-02T09:51:46;53624.34;;;-145.32;100.00
14041;BME280;7095;51.388;6.196;2023-05-02T09:54:32;53636.28;;;-145.32;100.00
14041;BME280;7095;51.388;6.196;2023-05-02T09:57:02;53630.31;;;-145.32;100.00
14041;BME280;7095;51.388;6.196;2023-05-02T09:59:35;53580.63;;;-145.32;100.00
14041;BME280;7095;51.388;6.196;2023-05-02T10:02:04;53594.53;;;-145.32;100.00
14041;BME280;7095;51.388;6.196;2023-05-02T10:04:35;53566.69;;;-145.32;94.96
14041;BME280;7095;51.388;6.196;2023-05-02T10:07:06;53610.44;;;-145.32;97.48
14041;BME280;7095;51.388;6.196;2023-05-02T10:09:43;53596.53;;;-145.32;96.34
14041;BME280;7095;51.388;6.196;2023-05-02T10:12:14;53590.56;;;-145.32;97.84
14041;BME280;7095;51.388;6.196;2023-05-02T10:14:48;53608.44;;;-145.32;89.88
14041;BME280;7095;51.388;6.196;2023-05-02T10:17:21;53616.41;;;-145.32;99.62
14041;BME280;7095;51.388;6.196;2023-05-02T10:19:56;53610.44;;;-145.32;94.02
14041;BME280;7095;51.388;6.196;2023-05-02T10:22:28;53602.47;;;-145.32;92.89
14041;BME280;7095;51.388;6.196;2023-05-02T10:24:58;53614.41;;;-145.32;97.22
14041;BME280;7095;51.388;6.196;2023-05-02T10:27:29;53616.41;;;-145.32;100.00
14041;BME280;7095;51.388;6.196;2023-05-02T10:30:00;53608.44;;;-145.32;100.00
14041;BME280;7095;51.388;6.196;2023-05-02T10:32:32;53606.47;;;-145.32;100.00
14041;BME280;7095;51.388;6.196;2023-05-02T10:35:03;53578.63;;;-145.32;95.60
14041;BME280;7095;51.388;6.196;2023-05-02T10:37:35;53612.44;;;-145.32;94.89
14041;BME280;7095;51.388;6.196;2023-05-02T10:40:07;53598.50;;;-145.32;94.47
14041;BME280;7095;51.388;6.196;2023-05-02T10:42:39;53578.63;;;-145.32;85.66
14041;BME280;7095;51.388;6.196;2023-05-02T10:45:12;53594.53;;;-145.32;85.73
14041;BME280;7095;51.388;6.196;2023-05-02T10:48:12;53584.59;;;-145.32;64.84
14041;BME280;7095;51.388;6.196;2023-05-02T10:50:45;53554.78;;;-145.32;83.00
14041;BME280;7095;51.388;6.196;2023-05-02T10:53:22;53566.69;;;-145.32;84.78
14041;BME280;7095;51.388;6.196;2023-05-02T10:56:25;53530.91;;;-145.32;76.95
14041;BME280;7095;51.388;6.196;2023-05-02T10:59:27;53544.81;;;-145.32;83.73
14041;BME280;7095;51.388;6.196;2023-05-02T11:01:58;53560.72;;;-145.32;86.97
14041;BME280;7095;51.388;6.196;2023-05-02T11:07:33;53558.75;;;-145.32;88.44
14041;BME280;7095;51.388;6.196;2023-05-02T11:10:24;53554.78;;;-145.32;80.62
14041;BME280;7095;51.388;6.196;2023-05-02T11:12:55;53558.75;;;-145.32;84.91
14041;BME280;7095;51.388;6.196;2023-05-02T11:15:55;53528.94;;;-145.32;67.80
14041;BME280;7095;51.388;6.196;2023-05-02T11:18:25;53578.63;;;-145.32;80.26
14041;BME280;7095;51.388;6.196;2023-05-02T11:21:24;53499.09;;;-145.32;72.66
14041;BME280;7095;51.388;6.196;2023-05-02T11:29:58;53534.88;;;-145.32;76.72
14041;BME280;7095;51.388;6.196;2023-05-02T11:33:18;53548.81;;;-145.32;57.04
14041;BME280;7095;51.388;6.196;2023-05-02T11:35:48;53536.88;;;-145.32;73.38
14041;BME280;7095;51.388;6.196;2023-05-02T11:38:20;53524.94;;;-145.32;64.58
14041;BME280;7095;51.388;6.196;2023-05-02T11:40:51;53550.78;;;-145.32;67.02
14041;BME280;7095;51.388;6.196;2023-05-02T11:43:22;53530.91;;;-145.32;64.23
14041;BME280;7095;51.388;6.196;2023-05-02T11:45:51;53518.97;;;-145.32;63.82
14041;BME280;7095;51.388;6.196;2023-05-02T11:48:22;53542.84;;;-145.32;62.14
14041;BME280;7095;51.388;6.196;2023-05-02T11:50:57;53538.88;;;-145.32;58.28
14041;BME280;7095;51.388;6.196;2023-05-02T11:53:28;53526.94;;;-145.32;62.82
14041;BME280;7095;51.388;6.196;2023-05-02T11:55:58;53556.75;;;-145.32;56.98
14041;BME280;7095;51.388;6.196;2023-05-02T11:58:29;53499.09;;;-145.32;58.74
14041;BME280;7095;51.388;6.196;2023-05-02T12:01:11;53530.91;;;-145.32;55.69
14041;BME280;7095;51.388;6.196;2023-05-02T12:03:40;53499.09;;;-145.32;58.11
14041;BME280;7095;51.388;6.196;2023-05-02T12:06:13;53491.16;;;-145.32;57.15
14041;BME280;7095;51.388;6.196;2023-05-02T12:08:43;53499.09;;;-145.32;58.12
14041;BME280;7095;51.388;6.196;2023-05-02T12:11:12;53491.16;;;-145.32;58.94
14041;BME280;7095;51.388;6.196;2023-05-02T12:13:46;53518.97;;;-145.32;56.93
14041;BME280;7095;51.388;6.196;2023-05-02T12:16:18;53536.88;;;-145.32;60.90
14041;BME280;7095;51.388;6.196;2023-05-02T12:18:47;53520.97;;;-145.32;61.89
14041;BME280;7095;51.388;6.196;2023-05-02T12:21:17;53546.81;;;-145.32;57.17
14041;BME280;7095;51.388;6.196;2023-05-02T12:23:46;53515.00;;;-145.32;59.00
14041;BME280;7095;51.388;6.196;2023-05-02T12:26:19;53499.09;;;-145.32;56.60
14041;BME280;7095;51.388;6.196;2023-05-02T12:28:51;53511.03;;;-145.32;55.08
14041;BME280;7095;51.388;6.196;2023-05-02T12:31:21;53487.19;;;-145.32;55.87
14041;BME280;7095;51.388;6.196;2023-05-02T12:33:50;53455.38;;;-145.32;53.26
14041;BME280;7095;51.388;6.196;2023-05-02T12:36:24;53415.59;;;-145.32;51.85
14041;BME280;7095;51.388;6.196;2023-05-02T12:38:56;53409.63;;;-145.32;50.96
14041;BME280;7095;51.388;6.196;2023-05-02T12:41:33;53359.94;;;-145.32;47.12
14041;BME280;7095;51.388;6.196;2023-05-02T12:44:04;53344.03;;;-145.32;47.21
14041;BME280;7095;51.388;6.196;2023-05-02T12:46:33;53336.09;;;-145.32;48.86
14041;BME280;7095;51.388;6.196;2023-05-02T12:49:03;53375.84;;;-145.32;48.15
14041;BME280;7095;51.388;6.196;2023-05-02T12:51:35;53371.88;;;-145.32;46.65
14041;BME280;7095;51.388;6.196;2023-05-02T12:54:04;53334.09;;;-145.32;47.87
14041;BME280;7095;51.388;6.196;2023-05-02T12:56:40;53314.22;;;-145.32;44.51
14041;BME280;7095;51.388;6.196;2023-05-02T12:59:25;53399.69;;;-145.32;47.14
14041;BME280;7095;51.388;6.196;2023-05-02T13:01:54;53415.59;;;-145.32;48.23
14041;BME280;7095;51.388;6.196;2023-05-02T13:04:32;53415.59;;;-145.32;45.57
14041;BME280;7095;51.388;6.196;2023-05-02T13:07:03;53459.34;;;-145.32;47.52
14041;BME280;7095;51.388;6.196;2023-05-02T13:09:32;53359.94;;;-145.32;48.02
14041;BME280;7095;51.388;6.196;2023-05-02T13:12:00;53350.00;;;-145.32;48.07
14041;BME280;7095;51.388;6.196;2023-05-02T13:14:31;53389.75;;;-145.32;45.76
14041;BME280;7095;51.388;6.196;2023-05-02T13:17:00;53403.69;;;-145.32;46.67
14041;BME280;7095;51.388;6.196;2023-05-02T13:19:29;53395.72;;;-145.32;46.84
14041;BME280;7095;51.388;6.196;2023-05-02T13:21:57;53365.91;;;-145.32;46.62